sensor_id;sensor_type;location;lat;lon;timestamp;pressure;altitude;pressure_sealevel;temperature;humidity
55468;BME280;41332;42.702;23.200;2022-10-16T00:01:29;94615.41;;;7.48;74.96
55468;BME280;41332;42.702;23.200;2022-10-16T00:03:56;94635.06;;;7.46;75.09
55468;BME280;41332;42.702;23.200;2022-10-16T00:06:22;94632.53;;;7.40;75.49
55468;BME280;41332;42.702;23.200;2022-10-16T00:08:48;94642.06;;;7.31;75.69
55468;BME280;41332;42.702;23.200;2022-10-16T00:11:24;94647.72;;;7.38;75.97
55468;BME280;41332;42.702;23.200;2022-10-16T00:13:51;94639.66;;;7.35;75.58
55468;BME280;41332;42.702;23.200;2022-10-16T00:16:18;94635.22;;;7.35;75.49
55468;BME280;41332;42.702;23.200;2022-10-16T00:18:43;94634.13;;;7.36;75.71
55468;BME280;41332;42.702;23.200;2022-10-16T00:21:11;94643.75;;;7.41;75.97
55468;BME280;41332;42.702;23.200;2022-10-16T00:23:38;94643.53;;;7.37;74.94
55468;BME280;41332;42.702;23.200;2022-10-16T00:26:07;94643.06;;;7.35;75.73
55468;BME280;41332;42.702;23.200;2022-10-16T00:28:34;94655.72;;;7.28;75.28
55468;BME280;41332;42.702;23.200;2022-10-16T00:31:06;94646.59;;;7.25;75.54
55468;BME280;41332;42.702;23.200;2022-10-16T00:33:32;94653.31;;;7.13;76.15
55468;BME280;41332;42.702;23.200;2022-10-16T00:35:58;94645.00;;;7.11;75.93
55468;BME280;41332;42.702;23.200;2022-10-16T00:38:24;94642.41;;;7.11;76.09
55468;BME280;41332;42.702;23.200;2022-10-16T00:40:49;94648.53;;;7.20;75.78
55468;BME280;41332;42.702;23.200;2022-10-16T00:46:03;94646.31;;;7.27;75.25
55468;BME280;41332;42.702;23.200;2022-10-16T00:48:29;94641.09;;;7.27;75.51
55468;BME280;41332;42.702;23.200;2022-10-16T00:50:56;94644.66;;;7.17;76.27
55468;BME280;41332;42.702;23.200;2022-10-16T00:53:23;94651.75;;;7.12;76.27
55468;BME280;41332;42.702;23.200;2022-10-16T00:55:50;94651.66;;;7.03;76.13
55468;BME280;41332;42.702;23.200;2022-10-16T00:58:15;94640.69;;;7.01;76.38
55468;BME280;41332;42.702;23.200;2022-10-16T01:00:40;94644.13;;;6.96;77.09
55468;BME280;41332;42.702;23.200;2022-10-16T01:03:30;94636.81;;;6.98;76.48
55468;BME280;41332;42.702;23.200;2022-10-16T01:06:07;94641.66;;;7.05;75.70
55468;BME280;41332;42.702;23.200;2022-10-16T01:11:25;94647.75;;;7.00;75.87
55468;BME280;41332;42.702;23.200;2022-10-16T01:13:55;94643.09;;;6.97;76.53
55468;BME280;41332;42.702;23.200;2022-10-16T01:16:39;94653.31;;;6.93;76.01
55468;BME280;41332;42.702;23.200;2022-10-16T01:19:09;94653.91;;;6.90;76.58
55468;BME280;41332;42.702;23.200;2022-10-16T01:21:43;94638.72;;;6.92;76.28
55468;BME280;41332;42.702;23.200;2022-10-16T01:27:15;94640.19;;;6.99;76.01
55468;BME280;41332;42.702;23.200;2022-10-16T01:32:41;94632.94;;;6.96;75.40
55468;BME280;41332;42.702;23.200;2022-10-16T01:40:11;94648.97;;;6.89;76.16
55468;BME280;41332;42.702;23.200;2022-10-16T01:42:41;94646.13;;;6.85;76.02
55468;BME280;41332;42.702;23.200;2022-10-16T01:45:10;94648.53;;;6.82;76.13
55468;BME280;41332;42.702;23.200;2022-10-16T01:47:38;94648.75;;;6.85;76.43
55468;BME280;41332;42.702;23.200;2022-10-16T01:50:06;94646.41;;;6.84;76.09
55468;BME280;41332;42.702;23.200;2022-10-16T01:52:35;94649.31;;;6.82;76.61
55468;BME280;41332;42.702;23.200;2022-10-16T01:55:03;94650.84;;;6.83;76.16
55468;BME280;41332;42.702;23.200;2022-10-16T01:57:32;94660.31;;;6.79;75.59
55468;BME280;41332;42.702;23.200;2022-10-16T02:00:04;94664.47;;;6.80;76.36
55468;BME280;41332;42.702;23.200;2022-10-16T02:02:31;94661.09;;;6.80;75.34
55468;BME280;41332;42.702;23.200;2022-10-16T02:07:35;94658.88;;;6.68;75.93
55468;BME280;41332;42.702;23.200;2022-10-16T02:10:00;94668.91;;;6.60;75.82
55468;BME280;41332;42.702;23.200;2022-10-16T02:12:28;94669.19;;;6.59;75.76
55468;BME280;41332;42.702;23.200;2022-10-16T02:14:56;94664.31;;;6.52;75.67
55468;BME280;41332;42.702;23.200;2022-10-16T02:17:21;94670.63;;;6.46;76.16
55468;BME280;41332;42.702;23.200;2022-10-16T02:19:49;94675.00;;;6.51;77.05
55468;BME280;41332;42.702;23.200;2022-10-16T02:22:27;94678.34;;;6.56;76.88
55468;BME280;41332;42.702;23.200;2022-10-16T02:24:57;94683.06;;;6.54;76.67
55468;BME280;41332;42.702;23.200;2022-10-16T02:27:41;94687.00;;;6.52;76.87
55468;BME280;41332;42.702;23.200;2022-10-16T02:30:27;94682.28;;;6.54;76.26
55468;BME280;41332;42.702;23.200;2022-10-16T02:32:55;94678.69;;;6.50;76.91
55468;BME280;41332;42.702;23.200;2022-10-16T02:35:23;94670.59;;;6.51;77.66
55468;BME280;41332;42.702;23.200;2022-10-16T02:37:49;94677.06;;;6.54;76.73
55468;BME280;41332;42.702;23.200;2022-10-16T02:40:16;94677.06;;;6.54;76.54
55468;BME280;41332;42.702;23.200;2022-10-16T02:42:42;94685.97;;;6.53;75.89
55468;BME280;41332;42.702;23.200;2022-10-16T02:45:09;94690.66;;;6.51;76.58
55468;BME280;41332;42.702;23.200;2022-10-16T02:47:35;94692.22;;;6.52;76.68
55468;BME280;41332;42.702;23.200;2022-10-16T02:50:00;94688.34;;;6.49;76.32
55468;BME280;41332;42.702;23.200;2022-10-16T02:52:26;94694.84;;;6.52;75.93
55468;BME280;41332;42.702;23.200;2022-10-16T02:54:51;94697.72;;;6.50;76.53
55468;BME280;41332;42.702;23.200;2022-10-16T02:57:17;94703.25;;;6.49;76.06
55468;BME280;41332;42.702;23.200;2022-10-16T02:59:43;94701.16;;;6.46;76.01
55468;BME280;41332;42.702;23.200;2022-10-16T03:02:09;94704.91;;;6.39;75.68
55468;BME280;41332;42.702;23.200;2022-10-16T03:04:37;94696.28;;;6.39;75.56
55468;BME280;41332;42.702;23.200;2022-10-16T03:07:03;94703.84;;;6.40;76.02
55468;BME280;41332;42.702;23.200;2022-10-16T03:09:28;94691.34;;;6.37;76.11
55468;BME280;41332;42.702;23.200;2022-10-16T03:11:53;94696.78;;;6.41;76.10
55468;BME280;41332;42.702;23.200;2022-10-16T03:14:19;94691.34;;;6.37;75.85
55468;BME280;41332;42.702;23.200;2022-10-16T03:16:44;94701.44;;;6.44;76.26
55468;BME280;41332;42.702;23.200;2022-10-16T03:19:10;94700.47;;;6.40;75.81
55468;BME280;41332;42.702;23.200;2022-10-16T03:21:38;94693.72;;;6.34;75.27
55468;BME280;41332;42.702;23.200;2022-10-16T03:24:04;94692.44;;;6.31;75.56
55468;BME280;41332;42.702;23.200;2022-10-16T03:26:29;94711.00;;;6.30;75.41
55468;BME280;41332;42.702;23.200;2022-10-16T03:28:54;94712.84;;;6.29;74.88
55468;BME280;41332;42.702;23.200;2022-10-16T03:31:20;94720.94;;;6.27;75.45
55468;BME280;41332;42.702;23.200;2022-10-16T03:33:45;94712.94;;;6.19;75.24
55468;BME280;41332;42.702;23.200;2022-10-16T03:36:11;94723.88;;;6.21;75.43
55468;BME280;41332;42.702;23.200;2022-10-16T03:38:36;94713.47;;;6.16;75.07
55468;BME280;41332;42.702;23.200;2022-10-16T03:41:02;94714.75;;;6.18;75.46
55468;BME280;41332;42.702;23.200;2022-10-16T03:43:28;94709.81;;;6.17;75.47
55468;BME280;41332;42.702;23.200;2022-10-16T03:45:53;94701.81;;;6.08;75.35
55468;BME280;41332;42.702;23.200;2022-10-16T03:48:19;94707.81;;;6.08;75.98
55468;BME280;41332;42.702;23.200;2022-10-16T03:50:44;94708.38;;;6.05;75.05
55468;BME280;41332;42.702;23.200;2022-10-16T03:53:11;94708.63;;;6.04;75.52
55468;BME280;41332;42.702;23.200;2022-10-16T03:55:36;94713.56;;;6.05;74.96
55468;BME280;41332;42.702;23.200;2022-10-16T03:58:02;94707.94;;;5.93;75.96
55468;BME280;41332;42.702;23.200;2022-10-16T04:00:27;94712.88;;;5.94;75.96
55468;BME280;41332;42.702;23.200;2022-10-16T04:02:53;94713.72;;;5.85;76.24
55468;BME280;41332;42.702;23.200;2022-10-16T04:05:18;94704.38;;;5.84;76.16
55468;BME280;41332;42.702;23.200;2022-10-16T04:07:43;94706.47;;;5.82;76.68
55468;BME280;41332;42.702;23.200;2022-10-16T04:10:09;94709.03;;;5.87;76.88
55468;BME280;41332;42.702;23.200;2022-10-16T04:12:35;94708.25;;;5.86;76.43
55468;BME280;41332;42.702;23.200;2022-10-16T04:15:00;94706.66;;;5.90;76.39
55468;BME280;41332;42.702;23.200;2022-10-16T04:17:26;94704.53;;;5.92;77.08
55468;BME280;41332;42.702;23.200;2022-10-16T04:19:51;94713.44;;;5.91;76.53
55468;BME280;41332;42.702;23.200;2022-10-16T04:22:16;94700.44;;;5.86;76.26
55468;BME280;41332;42.702;23.200;2022-10-16T04:24:42;94711.91;;;5.85;76.83
55468;BME280;41332;42.702;23.200;2022-10-16T04:27:07;94708.31;;;5.81;76.60
55468;BME280;41332;42.702;23.200;2022-10-16T04:29:32;94718.94;;;5.85;76.90
55468;BME280;41332;42.702;23.200;2022-10-16T04:31:58;94711.34;;;5.88;76.56
55468;BME280;41332;42.702;23.200;2022-10-16T04:34:23;94711.69;;;5.82;76.52
55468;BME280;41332;42.702;23.200;2022-10-16T04:36:49;94711.44;;;5.78;76.63
55468;BME280;41332;42.702;23.200;2022-10-16T04:39:15;94702.94;;;5.67;76.92
55468;BME280;41332;42.702;23.200;2022-10-16T04:41:40;94724.25;;;5.74;76.98
55468;BME280;41332;42.702;23.200;2022-10-16T04:44:06;94724.31;;;5.64;77.80
55468;BME280;41332;42.702;23.200;2022-10-16T04:46:31;94724.59;;;5.63;77.20
55468;BME280;41332;42.702;23.200;2022-10-16T04:48:57;94731.63;;;5.67;77.43
55468;BME280;41332;42.702;23.200;2022-10-16T04:51:22;94728.19;;;5.72;77.27
55468;BME280;41332;42.702;23.200;2022-10-16T04:53:48;94725.75;;;5.81;77.09
55468;BME280;41332;42.702;23.200;2022-10-16T04:56:13;94737.38;;;5.99;76.65
55468;BME280;41332;42.702;23.200;2022-10-16T04:58:40;94738.34;;;6.08;76.77
55468;BME280;41332;42.702;23.200;2022-10-16T05:01:05;94736.09;;;6.25;76.30
55468;BME280;41332;42.702;23.200;2022-10-16T05:03:31;94742.56;;;6.57;75.29
55468;BME280;41332;42.702;23.200;2022-10-16T05:05:56;94744.53;;;6.90;73.76
55468;BME280;41332;42.702;23.200;2022-10-16T05:08:21;94733.16;;;7.00;72.96
55468;BME280;41332;42.702;23.200;2022-10-16T05:10:47;94742.13;;;6.93;72.39
55468;BME280;41332;42.702;23.200;2022-10-16T05:13:12;94739.56;;;6.88;73.00
55468;BME280;41332;42.702;23.200;2022-10-16T05:15:38;94744.66;;;6.80;72.97
55468;BME280;41332;42.702;23.200;2022-10-16T05:18:03;94748.69;;;6.91;72.54
55468;BME280;41332;42.702;23.200;2022-10-16T05:20:29;94749.13;;;6.98;72.50
55468;BME280;41332;42.702;23.200;2022-10-16T05:22:54;94756.44;;;7.58;72.02
55468;BME280;41332;42.702;23.200;2022-10-16T05:25:19;94754.50;;;8.30;70.35
55468;BME280;41332;42.702;23.200;2022-10-16T05:27:48;94750.16;;;9.46;68.16
55468;BME280;41332;42.702;23.200;2022-10-16T05:30:15;94758.88;;;10.46;64.51
55468;BME280;41332;42.702;23.200;2022-10-16T05:32:40;94754.31;;;11.27;61.45
55468;BME280;41332;42.702;23.200;2022-10-16T05:35:06;94756.47;;;12.12;59.06
55468;BME280;41332;42.702;23.200;2022-10-16T05:37:32;94759.31;;;12.93;56.68
55468;BME280;41332;42.702;23.200;2022-10-16T05:39:57;94771.22;;;13.72;54.29
55468;BME280;41332;42.702;23.200;2022-10-16T05:42:22;94764.88;;;14.40;52.70
55468;BME280;41332;42.702;23.200;2022-10-16T05:44:48;94760.88;;;15.04;51.86
55468;BME280;41332;42.702;23.200;2022-10-16T05:47:13;94767.44;;;15.47;50.52
55468;BME280;41332;42.702;23.200;2022-10-16T05:49:39;94766.84;;;15.66;51.19
55468;BME280;41332;42.702;23.200;2022-10-16T05:52:04;94777.72;;;15.77;51.32
55468;BME280;41332;42.702;23.200;2022-10-16T05:54:30;94775.16;;;16.22;50.35
55468;BME280;41332;42.702;23.200;2022-10-16T05:56:55;94771.09;;;17.04;48.66
55468;BME280;41332;42.702;23.200;2022-10-16T05:59:21;94780.78;;;18.03;46.03
55468;BME280;41332;42.702;23.200;2022-10-16T06:01:46;94785.31;;;18.88;44.05
55468;BME280;41332;42.702;23.200;2022-10-16T06:04:11;94777.66;;;19.64;42.26
55468;BME280;41332;42.702;23.200;2022-10-16T06:06:37;94774.63;;;20.30;40.38
55468;BME280;41332;42.702;23.200;2022-10-16T06:09:03;94782.50;;;20.98;38.69
55468;BME280;41332;42.702;23.200;2022-10-16T06:11:30;94792.06;;;21.54;36.44
55468;BME280;41332;42.702;23.200;2022-10-16T06:13:58;94787.28;;;21.96;36.56
55468;BME280;41332;42.702;23.200;2022-10-16T06:16:26;94797.03;;;22.41;35.33
55468;BME280;41332;42.702;23.200;2022-10-16T06:18:53;94797.88;;;22.84;34.59
55468;BME280;41332;42.702;23.200;2022-10-16T06:21:24;94806.28;;;23.15;33.60
55468;BME280;41332;42.702;23.200;2022-10-16T06:23:54;94807.41;;;23.47;33.22
55468;BME280;41332;42.702;23.200;2022-10-16T06:26:22;94803.53;;;23.77;32.52
55468;BME280;41332;42.702;23.200;2022-10-16T06:28:48;94806.94;;;23.81;31.71
55468;BME280;41332;42.702;23.200;2022-10-16T06:31:15;94809.31;;;23.61;31.94
55468;BME280;41332;42.702;23.200;2022-10-16T06:33:40;94814.63;;;23.75;31.15
55468;BME280;41332;42.702;23.200;2022-10-16T06:36:14;94813.50;;;23.73;31.14
55468;BME280;41332;42.702;23.200;2022-10-16T06:38:40;94817.00;;;23.44;31.12
55468;BME280;41332;42.702;23.200;2022-10-16T06:41:07;94816.22;;;22.71;32.03
55468;BME280;41332;42.702;23.200;2022-10-16T06:43:33;94818.50;;;22.87;32.29
55468;BME280;41332;42.702;23.200;2022-10-16T06:46:01;94823.13;;;22.87;31.98
55468;BME280;41332;42.702;23.200;2022-10-16T06:48:27;94830.41;;;23.19;32.60
55468;BME280;41332;42.702;23.200;2022-10-16T06:50:59;94834.59;;;23.49;31.11
55468;BME280;41332;42.702;23.200;2022-10-16T06:53:27;94831.94;;;23.38;31.45
55468;BME280;41332;42.702;23.200;2022-10-16T06:55:52;94825.00;;;23.55;31.03
55468;BME280;41332;42.702;23.200;2022-10-16T06:58:18;94827.25;;;23.75;30.25
55468;BME280;41332;42.702;23.200;2022-10-16T07:00:44;94842.06;;;24.26;30.77
55468;BME280;41332;42.702;23.200;2022-10-16T07:03:09;94839.78;;;24.21;29.35
55468;BME280;41332;42.702;23.200;2022-10-16T07:05:39;94838.72;;;24.00;29.62
55468;BME280;41332;42.702;23.200;2022-10-16T07:08:04;94841.47;;;23.68;30.86
55468;BME280;41332;42.702;23.200;2022-10-16T07:10:31;94842.56;;;23.81;30.32
55468;BME280;41332;42.702;23.200;2022-10-16T07:12:56;94853.25;;;24.07;30.44
55468;BME280;41332;42.702;23.200;2022-10-16T07:15:22;94842.44;;;24.32;29.09
55468;BME280;41332;42.702;23.200;2022-10-16T07:17:47;94855.00;;;24.49;29.77
55468;BME280;41332;42.702;23.200;2022-10-16T07:20:12;94848.81;;;24.67;29.32
55468;BME280;41332;42.702;23.200;2022-10-16T07:22:38;94855.59;;;23.90;30.04
55468;BME280;41332;42.702;23.200;2022-10-16T07:25:03;94856.75;;;23.78;29.82
55468;BME280;41332;42.702;23.200;2022-10-16T07:27:29;94851.72;;;24.13;29.80
55468;BME280;41332;42.702;23.200;2022-10-16T07:29:54;94846.13;;;24.60;29.32
55468;BME280;41332;42.702;23.200;2022-10-16T07:32:20;94850.75;;;25.23;29.07
55468;BME280;41332;42.702;23.200;2022-10-16T07:34:45;94855.63;;;25.80;28.14
55468;BME280;41332;42.702;23.200;2022-10-16T07:37:11;94852.88;;;25.46;27.57
55468;BME280;41332;42.702;23.200;2022-10-16T07:39:36;94858.34;;;25.77;27.13
55468;BME280;41332;42.702;23.200;2022-10-16T07:42:02;94852.16;;;25.80;27.51
55468;BME280;41332;42.702;23.200;2022-10-16T07:44:27;94860.25;;;25.31;27.62
55468;BME280;41332;42.702;23.200;2022-10-16T07:46:52;94856.47;;;24.72;28.18
55468;BME280;41332;42.702;23.200;2022-10-16T07:49:18;94849.63;;;25.16;28.13
55468;BME280;41332;42.702;23.200;2022-10-16T07:51:43;94858.34;;;25.35;27.32
55468;BME280;41332;42.702;23.200;2022-10-16T07:54:09;94861.94;;;25.63;28.14
55468;BME280;41332;42.702;23.200;2022-10-16T07:56:35;94857.91;;;26.20;26.77
55468;BME280;41332;42.702;23.200;2022-10-16T07:59:00;94863.72;;;26.49;26.82
55468;BME280;41332;42.702;23.200;2022-10-16T08:01:26;94867.47;;;26.56;26.55
55468;BME280;41332;42.702;23.200;2022-10-16T08:03:51;94857.72;;;26.00;26.20
55468;BME280;41332;42.702;23.200;2022-10-16T08:06:18;94868.91;;;25.04;27.63
55468;BME280;41332;42.702;23.200;2022-10-16T08:08:44;94862.25;;;25.23;27.67
55468;BME280;41332;42.702;23.200;2022-10-16T08:11:10;94868.03;;;25.18;27.67
55468;BME280;41332;42.702;23.200;2022-10-16T08:13:36;94864.47;;;24.79;28.29
55468;BME280;41332;42.702;23.200;2022-10-16T08:16:02;94863.94;;;25.02;27.59
55468;BME280;41332;42.702;23.200;2022-10-16T08:18:33;94868.16;;;24.26;29.03
55468;BME280;41332;42.702;23.200;2022-10-16T08:20:59;94859.09;;;23.69;29.93
55468;BME280;41332;42.702;23.200;2022-10-16T08:23:26;94869.34;;;22.59;31.39
55468;BME280;41332;42.702;23.200;2022-10-16T08:25:55;94862.03;;;21.22;35.00
55468;BME280;41332;42.702;23.200;2022-10-16T08:28:22;94866.72;;;20.88;35.31
55468;BME280;41332;42.702;23.200;2022-10-16T08:30:47;94872.94;;;19.97;36.37
55468;BME280;41332;42.702;23.200;2022-10-16T08:33:13;94863.47;;;18.80;38.69
55468;BME280;41332;42.702;23.200;2022-10-16T08:35:39;94865.13;;;18.06;41.10
55468;BME280;41332;42.702;23.200;2022-10-16T08:38:05;94871.59;;;17.54;41.36
55468;BME280;41332;42.702;23.200;2022-10-16T08:40:33;94867.91;;;17.26;42.87
55468;BME280;41332;42.702;23.200;2022-10-16T08:46:30;94860.66;;;16.63;44.45
55468;BME280;41332;42.702;23.200;2022-10-16T08:49:02;94871.97;;;16.31;45.64
55468;BME280;41332;42.702;23.200;2022-10-16T08:51:29;94876.44;;;16.15;45.81
55468;BME280;41332;42.702;23.200;2022-10-16T08:54:02;94870.44;;;15.90;46.41
55468;BME280;41332;42.702;23.200;2022-10-16T08:56:28;94865.13;;;15.90;46.34
55468;BME280;41332;42.702;23.200;2022-10-16T08:58:54;94875.84;;;15.69;45.98
55468;BME280;41332;42.702;23.200;2022-10-16T09:01:21;94882.34;;;15.59;46.61
55468;BME280;41332;42.702;23.200;2022-10-16T09:04:10;94884.47;;;15.41;46.64
55468;BME280;41332;42.702;23.200;2022-10-16T09:12:22;94877.59;;;15.03;46.61
55468;BME280;41332;42.702;23.200;2022-10-16T09:17:27;94866.81;;;15.20;45.53
55468;BME280;41332;42.702;23.200;2022-10-16T09:22:41;94869.03;;;15.43;42.78
55468;BME280;41332;42.702;23.200;2022-10-16T09:25:13;94875.41;;;15.54;43.90
55468;BME280;41332;42.702;23.200;2022-10-16T09:27:39;94869.53;;;15.73;43.06
55468;BME280;41332;42.702;23.200;2022-10-16T09:30:16;94873.19;;;15.81;42.59
55468;BME280;41332;42.702;23.200;2022-10-16T09:32:43;94876.25;;;15.95;42.45
55468;BME280;41332;42.702;23.200;2022-10-16T09:37:58;94876.16;;;16.33;41.30
55468;BME280;41332;42.702;23.200;2022-10-16T09:40:33;94877.22;;;16.44;41.05
55468;BME280;41332;42.702;23.200;2022-10-16T09:43:23;94875.38;;;16.60;40.99
55468;BME280;41332;42.702;23.200;2022-10-16T09:46:08;94872.44;;;16.50;42.05
55468;BME280;41332;42.702;23.200;2022-10-16T09:48:43;94867.53;;;16.36;42.00
55468;BME280;41332;42.702;23.200;2022-10-16T09:51:34;94860.84;;;16.26;42.42
55468;BME280;41332;42.702;23.200;2022-10-16T09:56:32;94860.38;;;16.52;41.17
55468;BME280;41332;42.702;23.200;2022-10-16T09:59:10;94863.72;;;16.49;41.14
55468;BME280;41332;42.702;23.200;2022-10-16T10:01:38;94850.41;;;16.61;42.08
55468;BME280;41332;42.702;23.200;2022-10-16T10:04:04;94857.66;;;16.93;40.88
55468;BME280;41332;42.702;23.200;2022-10-16T10:06:33;94857.56;;;17.05;38.92
55468;BME280;41332;42.702;23.200;2022-10-16T10:09:03;94861.94;;;16.97;40.45
55468;BME280;41332;42.702;23.200;2022-10-16T10:14:50;94847.09;;;16.80;40.80
55468;BME280;41332;42.702;23.200;2022-10-16T10:19:27;94848.72;;;16.41;40.09
55468;BME280;41332;42.702;23.200;2022-10-16T10:21:53;94852.44;;;16.24;40.39
55468;BME280;41332;42.702;23.200;2022-10-16T10:24:19;94842.94;;;16.51;40.24
55468;BME280;41332;42.702;23.200;2022-10-16T10:32:26;94842.06;;;16.91;39.14
55468;BME280;41332;42.702;23.200;2022-10-16T10:57:29;94807.56;;;17.23;37.24
55468;BME280;41332;42.702;23.200;2022-10-16T11:02:57;94808.69;;;17.58;39.22
55468;BME280;41332;42.702;23.200;2022-10-16T11:05:46;94808.16;;;17.68;38.83
55468;BME280;41332;42.702;23.200;2022-10-16T11:08:19;94803.88;;;17.28;38.74
55468;BME280;41332;42.702;23.200;2022-10-16T11:10:52;94797.84;;;16.95;40.23
55468;BME280;41332;42.702;23.200;2022-10-16T11:15:58;94803.81;;;16.92;40.69
55468;BME280;41332;42.702;23.200;2022-10-16T11:18:47;94805.50;;;16.85;40.78
55468;BME280;41332;42.702;23.200;2022-10-16T11:21:18;94796.22;;;16.91;40.10
55468;BME280;41332;42.702;23.200;2022-10-16T11:26:26;94794.06;;;16.96;40.21
55468;BME280;41332;42.702;23.200;2022-10-16T11:28:54;94793.38;;;17.00;41.27
55468;BME280;41332;42.702;23.200;2022-10-16T11:33:52;94794.22;;;17.20;38.73
55468;BME280;41332;42.702;23.200;2022-10-16T11:39:02;94790.53;;;17.24;37.98
55468;BME280;41332;42.702;23.200;2022-10-16T11:46:27;94791.81;;;17.30;39.04
55468;BME280;41332;42.702;23.200;2022-10-16T11:49:20;94796.50;;;17.21;39.91
55468;BME280;41332;42.702;23.200;2022-10-16T11:57:53;94794.59;;;17.38;40.44
55468;BME280;41332;42.702;23.200;2022-10-16T12:00:25;94787.44;;;17.22;40.15
55468;BME280;41332;42.702;23.200;2022-10-16T12:08:11;94787.06;;;17.40;40.29
55468;BME280;41332;42.702;23.200;2022-10-16T12:10:39;94793.97;;;17.44;40.17
55468;BME280;41332;42.702;23.200;2022-10-16T12:13:29;94795.00;;;17.56;39.22
55468;BME280;41332;42.702;23.200;2022-10-16T12:16:21;94789.81;;;17.43;39.03
55468;BME280;41332;42.702;23.200;2022-10-16T12:18:47;94790.88;;;17.23;38.77
55468;BME280;41332;42.702;23.200;2022-10-16T12:21:14;94784.16;;;17.29;38.89
55468;BME280;41332;42.702;23.200;2022-10-16T12:23:49;94793.13;;;17.40;37.81
55468;BME280;41332;42.702;23.200;2022-10-16T12:26:27;94794.69;;;17.41;39.02
55468;BME280;41332;42.702;23.200;2022-10-16T12:28:54;94788.53;;;17.37;38.43
55468;BME280;41332;42.702;23.200;2022-10-16T12:31:20;94793.94;;;17.41;38.53
55468;BME280;41332;42.702;23.200;2022-10-16T12:37:08;94786.09;;;17.48;36.33
55468;BME280;41332;42.702;23.200;2022-10-16T12:39:52;94791.13;;;17.53;36.02
55468;BME280;41332;42.702;23.200;2022-10-16T12:44:55;94787.91;;;17.44;37.37
55468;BME280;41332;42.702;23.200;2022-10-16T12:47:22;94793.00;;;17.33;38.15
55468;BME280;41332;42.702;23.200;2022-10-16T12:49:53;94788.53;;;17.21;38.57
55468;BME280;41332;42.702;23.200;2022-10-16T12:52:38;94791.81;;;17.14;38.42
55468;BME280;41332;42.702;23.200;2022-10-16T12:55:05;94785.84;;;17.18;38.10
55468;BME280;41332;42.702;23.200;2022-10-16T13:00:26;94795.66;;;17.33;38.11
55468;BME280;41332;42.702;23.200;2022-10-16T13:05:46;94803.53;;;17.29;36.18
55468;BME280;41332;42.702;23.200;2022-10-16T13:08:29;94805.25;;;17.22;37.80
55468;BME280;41332;42.702;23.200;2022-10-16T13:16:58;94793.47;;;17.03;36.64
55468;BME280;41332;42.702;23.200;2022-10-16T13:19:39;94802.38;;;17.11;37.66
55468;BME280;41332;42.702;23.200;2022-10-16T13:28:02;94802.94;;;17.20;37.80
55468;BME280;41332;42.702;23.200;2022-10-16T13:30:36;94797.31;;;17.06;36.11
55468;BME280;41332;42.702;23.200;2022-10-16T13:33:07;94801.84;;;17.05;36.46
55468;BME280;41332;42.702;23.200;2022-10-16T13:35:47;94807.69;;;17.11;37.64
55468;BME280;41332;42.702;23.200;2022-10-16T13:38:15;94804.59;;;17.09;37.04
55468;BME280;41332;42.702;23.200;2022-10-16T13:41:15;94792.94;;;16.97;35.94
55468;BME280;41332;42.702;23.200;2022-10-16T13:43:50;94789.09;;;16.95;36.59
55468;BME280;41332;42.702;23.200;2022-10-16T13:46:22;94802.88;;;17.01;38.29
55468;BME280;41332;42.702;23.200;2022-10-16T13:51:23;94808.78;;;16.94;36.55
55468;BME280;41332;42.702;23.200;2022-10-16T13:53:49;94814.97;;;16.98;35.91
55468;BME280;41332;42.702;23.200;2022-10-16T13:56:20;94815.47;;;17.04;35.79
55468;BME280;41332;42.702;23.200;2022-10-16T13:58:46;94813.50;;;17.01;35.48
55468;BME280;41332;42.702;23.200;2022-10-16T14:01:27;94797.63;;;16.72;37.11
55468;BME280;41332;42.702;23.200;2022-10-16T14:04:01;94810.31;;;16.79;37.37
55468;BME280;41332;42.702;23.200;2022-10-16T14:06:28;94820.56;;;16.80;37.56
55468;BME280;41332;42.702;23.200;2022-10-16T14:09:01;94816.63;;;16.74;38.02
55468;BME280;41332;42.702;23.200;2022-10-16T14:11:30;94817.22;;;16.84;37.64
55468;BME280;41332;42.702;23.200;2022-10-16T14:13:56;94816.97;;;16.73;37.20
55468;BME280;41332;42.702;23.200;2022-10-16T14:16:25;94800.78;;;16.62;37.27
55468;BME280;41332;42.702;23.200;2022-10-16T14:19:01;94816.75;;;16.50;38.12
55468;BME280;41332;42.702;23.200;2022-10-16T14:21:28;94804.84;;;16.27;37.49
55468;BME280;41332;42.702;23.200;2022-10-16T14:23:54;94805.78;;;16.35;37.74
55468;BME280;41332;42.702;23.200;2022-10-16T14:26:23;94811.34;;;16.30;38.02
55468;BME280;41332;42.702;23.200;2022-10-16T14:29:08;94811.81;;;16.20;37.42
55468;BME280;41332;42.702;23.200;2022-10-16T14:31:35;94810.34;;;16.06;37.76
55468;BME280;41332;42.702;23.200;2022-10-16T14:34:02;94818.84;;;15.99;37.66
55468;BME280;41332;42.702;23.200;2022-10-16T14:36:28;94823.47;;;16.03;38.12
55468;BME280;41332;42.702;23.200;2022-10-16T14:39:06;94830.09;;;16.09;38.29
55468;BME280;41332;42.702;23.200;2022-10-16T14:41:44;94824.88;;;16.12;38.87
55468;BME280;41332;42.702;23.200;2022-10-16T14:44:11;94821.94;;;16.02;38.58
55468;BME280;41332;42.702;23.200;2022-10-16T14:46:38;94832.09;;;15.99;38.09
55468;BME280;41332;42.702;23.200;2022-10-16T14:51:37;94827.03;;;15.94;37.62
55468;BME280;41332;42.702;23.200;2022-10-16T14:54:03;94837.44;;;15.87;38.28
55468;BME280;41332;42.702;23.200;2022-10-16T14:56:35;94833.69;;;15.88;37.73
55468;BME280;41332;42.702;23.200;2022-10-16T14:59:12;94844.50;;;15.83;38.72
55468;BME280;41332;42.702;23.200;2022-10-16T15:01:39;94849.47;;;15.72;39.16
55468;BME280;41332;42.702;23.200;2022-10-16T15:04:07;94854.75;;;15.72;39.04
55468;BME280;41332;42.702;23.200;2022-10-16T15:06:32;94849.16;;;15.61;38.80
55468;BME280;41332;42.702;23.200;2022-10-16T15:08:58;94866.25;;;15.52;39.37
55468;BME280;41332;42.702;23.200;2022-10-16T15:11:23;94858.22;;;15.48;38.85
55468;BME280;41332;42.702;23.200;2022-10-16T15:13:49;94868.13;;;15.39;38.39